createdAt,value
2018-06-05T00:00:23.615Z,0.00
2018-06-05T00:01:23.621Z,0.00
2018-06-05T00:02:23.622Z,0.00
2018-06-05T00:03:23.625Z,0.00
2018-06-05T00:04:23.625Z,0.00
2018-06-05T00:05:23.627Z,0.00
2018-06-05T00:06:23.641Z,0.00
2018-06-05T00:07:23.651Z,0.00
2018-06-05T00:08:23.637Z,0.00
2018-06-05T00:09:23.638Z,0.00
2018-06-05T00:10:23.644Z,0.00
2018-06-05T00:11:23.647Z,0.00
2018-06-05T00:12:23.647Z,0.00
2018-06-05T00:13:23.649Z,0.00
2018-06-05T00:14:23.655Z,0.00
2018-06-05T00:15:23.659Z,0.00
2018-06-05T00:16:23.660Z,0.00
2018-06-05T00:17:23.669Z,0.00
2018-06-05T00:18:23.690Z,0.00
2018-06-05T00:19:23.668Z,0.00
2018-06-05T00:20:23.670Z,0.00
2018-06-05T00:21:23.674Z,0.00
2018-06-05T00:22:23.677Z,0.00
2018-06-05T00:23:23.680Z,0.00
2018-06-05T00:24:23.684Z,0.00
2018-06-05T00:25:23.686Z,0.00
2018-06-05T00:26:23.689Z,0.00
2018-06-05T00:27:23.721Z,0.00
2018-06-05T00:28:23.693Z,0.00
2018-06-05T00:29:23.697Z,0.00
2018-06-05T00:30:23.701Z,0.00
2018-06-05T00:31:23.702Z,0.00
2018-06-05T00:32:23.723Z,0.00
2018-06-05T00:33:23.708Z,0.00
2018-06-05T00:34:23.709Z,0.00
2018-06-05T00:35:23.712Z,0.00
2018-06-05T00:36:23.721Z,0.00
2018-06-05T00:37:23.718Z,0.00
2018-06-05T00:38:23.745Z,0.00
2018-06-05T00:39:23.726Z,0.00
2018-06-05T00:40:23.728Z,0.00
2018-06-05T00:41:23.731Z,0.00
2018-06-05T00:42:23.734Z,0.00
2018-06-05T00:43:23.738Z,0.00
2018-06-05T00:44:23.736Z,0.00
2018-06-05T00:45:23.741Z,0.00
2018-06-05T00:46:23.744Z,0.00
2018-06-05T00:47:23.765Z,0.00
2018-06-05T00:48:23.748Z,0.00
2018-06-05T00:49:23.757Z,0.00
2018-06-05T00:50:23.775Z,0.00
2018-06-05T00:51:23.757Z,0.00
2018-06-05T00:52:23.764Z,0.00
2018-06-05T00:53:23.783Z,0.00
2018-06-05T00:54:23.801Z,0.00
2018-06-05T00:55:23.768Z,0.00
2018-06-05T00:56:23.778Z,0.00
2018-06-05T00:57:23.772Z,0.00
2018-06-05T00:58:23.774Z,0.00
2018-06-05T00:59:23.777Z,0.00
2018-06-05T01:00:23.779Z,0.00
2018-06-05T01:01:23.782Z,0.00
2018-06-05T01:02:23.803Z,0.00
2018-06-05T01:03:23.797Z,0.00
2018-06-05T01:04:23.822Z,0.00
2018-06-05T01:05:23.793Z,0.00
2018-06-05T01:06:23.800Z,0.00
2018-06-05T01:07:23.820Z,0.00
2018-06-05T01:08:23.804Z,0.00
2018-06-05T01:09:23.804Z,0.00
2018-06-05T01:10:23.806Z,0.00
2018-06-05T01:11:23.809Z,0.00
2018-06-05T01:12:23.810Z,0.00
2018-06-05T01:13:23.812Z,0.00
2018-06-05T01:14:23.813Z,0.00
2018-06-05T01:15:23.817Z,0.00
2018-06-05T01:16:23.843Z,0.00
2018-06-05T01:17:23.825Z,0.00
2018-06-05T01:18:23.829Z,0.00
2018-06-05T01:19:23.843Z,0.00
2018-06-05T01:20:23.867Z,0.00
2018-06-05T01:21:23.838Z,0.00
2018-06-05T01:22:23.838Z,0.00
2018-06-05T01:23:23.835Z,0.00
2018-06-05T01:24:23.839Z,0.00
2018-06-05T01:25:23.840Z,0.00
2018-06-05T01:26:23.844Z,0.00
2018-06-05T01:27:23.848Z,0.00
2018-06-05T01:28:23.849Z,0.00
2018-06-05T01:29:23.852Z,0.00
2018-06-05T01:30:23.854Z,0.00
2018-06-05T01:31:23.853Z,0.00
2018-06-05T01:32:23.861Z,0.00
2018-06-05T01:33:23.889Z,0.00
2018-06-05T01:34:23.860Z,0.00
2018-06-05T01:35:23.863Z,0.00
2018-06-05T01:36:23.866Z,0.00
2018-06-05T01:37:23.871Z,0.00
2018-06-05T01:38:23.871Z,0.00
2018-06-05T01:39:23.874Z,0.00
2018-06-05T01:40:23.876Z,0.00
2018-06-05T01:41:23.876Z,0.00
2018-06-05T01:42:23.879Z,0.00
2018-06-05T01:43:23.882Z,0.00
2018-06-05T01:44:23.885Z,0.00
2018-06-05T01:45:23.894Z,0.00
2018-06-05T01:46:23.892Z,0.00
2018-06-05T01:47:23.894Z,0.00
2018-06-05T01:48:23.896Z,0.00
2018-06-05T01:49:23.895Z,0.00
2018-06-05T01:50:23.899Z,0.00
2018-06-05T01:51:23.916Z,0.00
2018-06-05T01:52:23.914Z,0.00
2018-06-05T01:53:23.907Z,0.00
2018-06-05T01:54:23.908Z,0.00
2018-06-05T01:55:23.911Z,0.00
2018-06-05T01:56:23.910Z,0.00
2018-06-05T01:57:23.940Z,0.00
2018-06-05T01:58:23.922Z,0.00
2018-06-05T01:59:23.918Z,0.00
2018-06-05T02:00:23.918Z,0.00
2018-06-05T02:01:24.017Z,0.00
2018-06-05T02:02:23.945Z,0.00
2018-06-05T02:03:23.924Z,0.00
2018-06-05T02:04:23.928Z,0.00
2018-06-05T02:05:23.931Z,0.00
2018-06-05T02:06:23.934Z,0.00
2018-06-05T02:07:23.937Z,0.00
2018-06-05T02:08:23.970Z,0.00
2018-06-05T02:09:23.957Z,0.00
2018-06-05T02:10:23.942Z,0.00
2018-06-05T02:11:24.036Z,0.00
2018-06-05T02:12:23.945Z,0.00
2018-06-05T02:13:23.947Z,0.00
2018-06-05T02:14:23.975Z,0.00
2018-06-05T02:15:23.961Z,0.00
2018-06-05T02:16:23.959Z,0.00
2018-06-05T02:17:23.958Z,0.00
2018-06-05T02:18:23.959Z,0.00
2018-06-05T02:19:23.958Z,0.00
2018-06-05T02:20:23.960Z,0.00
2018-06-05T02:21:24.023Z,0.00
2018-06-05T02:22:23.965Z,0.00
2018-06-05T02:23:23.968Z,0.00
2018-06-05T02:24:23.974Z,0.00
2018-06-05T02:25:23.971Z,0.00
2018-06-05T02:26:23.973Z,0.00
2018-06-05T02:27:23.979Z,0.00
2018-06-05T02:28:23.978Z,0.00
2018-06-05T02:29:23.981Z,0.00
2018-06-05T02:30:23.986Z,0.00
2018-06-05T02:31:24.072Z,0.00
2018-06-05T02:32:23.986Z,0.00
2018-06-05T02:33:23.988Z,0.00
2018-06-05T02:34:23.992Z,0.00
2018-06-05T02:35:24.000Z,0.00
2018-06-05T02:36:24.023Z,0.00
2018-06-05T02:37:24.017Z,0.00
2018-06-05T02:38:23.998Z,4.00
2018-06-05T02:39:23.998Z,4.00
2018-06-05T02:40:24.001Z,4.00
2018-06-05T02:41:24.050Z,0.00
2018-06-05T02:42:24.035Z,0.00
2018-06-05T02:43:24.011Z,4.00
2018-06-05T02:44:24.008Z,4.00
2018-06-05T02:45:24.033Z,0.00
2018-06-05T02:46:24.012Z,4.00
2018-06-05T02:47:24.013Z,4.00
2018-06-05T02:48:24.016Z,4.00
2018-06-05T02:49:24.015Z,8.00
2018-06-05T02:50:24.022Z,4.00
2018-06-05T02:51:24.061Z,8.00
2018-06-05T02:52:24.029Z,8.00
2018-06-05T02:53:24.025Z,8.00
2018-06-05T02:54:24.027Z,12.00
2018-06-05T02:55:24.028Z,12.00
2018-06-05T02:56:24.030Z,12.00
2018-06-05T02:57:24.029Z,16.00
2018-06-05T02:58:24.039Z,16.00
2018-06-05T02:59:24.036Z,20.00
2018-06-05T03:00:24.051Z,16.00
2018-06-05T03:01:24.077Z,20.00
2018-06-05T03:02:24.064Z,24.00
2018-06-05T03:03:24.041Z,24.00
2018-06-05T03:04:24.042Z,24.00
2018-06-05T03:05:24.043Z,28.00
2018-06-05T03:06:24.048Z,32.00
2018-06-05T03:07:24.051Z,36.00
2018-06-05T03:08:24.052Z,36.00
2018-06-05T03:09:24.073Z,40.00
2018-06-05T03:10:24.052Z,44.00
2018-06-05T03:11:24.054Z,44.00
2018-06-05T03:12:24.059Z,48.00
2018-06-05T03:13:24.071Z,52.00
2018-06-05T03:14:24.064Z,52.00
2018-06-05T03:15:24.064Z,56.00
2018-06-05T03:16:24.089Z,56.00
2018-06-05T03:17:24.066Z,56.00
2018-06-05T03:18:24.073Z,64.00
2018-06-05T03:19:24.074Z,68.00
2018-06-05T03:20:24.093Z,72.00
2018-06-05T03:21:24.076Z,76.00
2018-06-05T03:22:24.080Z,80.00
2018-06-05T03:23:24.076Z,84.00
2018-06-05T03:24:24.091Z,88.00
2018-06-05T03:25:24.081Z,88.00
2018-06-05T03:26:24.080Z,92.00
2018-06-05T03:27:24.081Z,96.00
2018-06-05T03:28:24.085Z,96.00
2018-06-05T03:29:24.084Z,104.00
2018-06-05T03:30:24.112Z,108.00
2018-06-05T03:31:24.089Z,116.00
2018-06-05T03:32:24.685Z,120.00
2018-06-05T03:33:24.092Z,132.00
2018-06-05T03:34:24.105Z,140.00
2018-06-05T03:35:24.093Z,144.00
2018-06-05T03:36:24.095Z,152.00
2018-06-05T03:37:24.098Z,160.00
2018-06-05T03:38:24.101Z,168.00
2018-06-05T03:39:24.102Z,172.00
2018-06-05T03:40:24.121Z,184.00
2018-06-05T03:41:24.107Z,192.00
2018-06-05T03:42:24.104Z,200.00
2018-06-05T03:43:24.107Z,208.00
2018-06-05T03:44:24.125Z,212.00
2018-06-05T03:45:24.132Z,224.00
2018-06-05T03:46:24.112Z,232.00
2018-06-05T03:47:24.114Z,236.00
2018-06-05T03:48:24.131Z,240.00
2018-06-05T03:49:24.116Z,244.00
2018-06-05T03:50:24.121Z,248.00
2018-06-05T03:51:24.118Z,256.00
2018-06-05T03:52:24.119Z,256.00
2018-06-05T03:53:24.153Z,260.00
2018-06-05T03:54:24.126Z,252.00
2018-06-05T03:55:24.125Z,240.00
2018-06-05T03:56:24.131Z,228.00
2018-06-05T03:57:24.134Z,212.00
2018-06-05T03:58:24.146Z,200.00
2018-06-05T03:59:24.560Z,196.00
2018-06-05T04:00:24.132Z,200.00
2018-06-05T04:01:24.359Z,208.00
2018-06-05T04:02:24.155Z,212.00
2018-06-05T04:03:24.140Z,208.00
2018-06-05T04:04:24.163Z,204.00
2018-06-05T04:05:24.147Z,196.00
2018-06-05T04:06:24.267Z,192.00
2018-06-05T04:07:24.145Z,188.00
2018-06-05T04:08:24.310Z,180.00
2018-06-05T04:09:24.149Z,176.00
2018-06-05T04:10:24.152Z,180.00
2018-06-05T04:11:24.185Z,180.00
2018-06-05T04:12:24.157Z,176.00
2018-06-05T04:13:24.174Z,172.00
2018-06-05T04:14:24.161Z,164.00
2018-06-05T04:15:24.159Z,168.00
2018-06-05T04:16:24.161Z,168.00
2018-06-05T04:17:24.163Z,176.00
2018-06-05T04:18:24.220Z,184.00
2018-06-05T04:19:24.178Z,192.00
2018-06-05T04:20:24.170Z,196.00
2018-06-05T04:21:24.171Z,200.00
2018-06-05T04:22:24.174Z,200.00
2018-06-05T04:23:24.175Z,196.00
2018-06-05T04:24:24.175Z,192.00
2018-06-05T04:25:24.180Z,192.00
2018-06-05T04:26:24.776Z,192.00
2018-06-05T04:27:24.262Z,192.00
2018-06-05T04:28:24.826Z,200.00
2018-06-05T04:29:24.187Z,200.00
2018-06-05T04:30:24.189Z,204.00
2018-06-05T04:31:24.196Z,208.00
2018-06-05T04:32:24.199Z,224.00
2018-06-05T04:33:24.196Z,236.00
2018-06-05T04:34:24.198Z,248.00
2018-06-05T04:35:24.204Z,256.00
2018-06-05T04:36:24.202Z,264.00
2018-06-05T04:37:24.205Z,268.00
2018-06-05T04:38:24.217Z,268.00
2018-06-05T04:39:24.212Z,272.00
2018-06-05T04:40:24.210Z,276.00
2018-06-05T04:41:24.213Z,276.00
2018-06-05T04:42:24.215Z,280.00
2018-06-05T04:43:24.218Z,276.00
2018-06-05T04:44:24.219Z,276.00
2018-06-05T04:45:24.222Z,280.00
2018-06-05T04:46:24.227Z,280.00
2018-06-05T04:47:24.255Z,288.00
2018-06-05T04:48:24.237Z,292.00
2018-06-05T04:49:24.232Z,292.00
2018-06-05T04:50:24.236Z,288.00
2018-06-05T04:51:24.234Z,284.00
2018-06-05T04:52:24.238Z,280.00
2018-06-05T04:53:24.306Z,276.00
2018-06-05T04:54:24.247Z,272.00
2018-06-05T04:55:24.259Z,272.00
2018-06-05T04:56:24.247Z,272.00
2018-06-05T04:57:24.251Z,268.00
2018-06-05T04:58:24.253Z,268.00
2018-06-05T04:59:24.576Z,268.00
2018-06-05T05:00:26.465Z,268.00
2018-06-05T05:01:24.446Z,272.00
2018-06-05T05:02:25.297Z,276.00
2018-06-05T05:03:24.374Z,276.00
2018-06-05T05:04:24.272Z,284.00
2018-06-05T05:05:24.271Z,288.00
2018-06-05T05:06:24.274Z,288.00
2018-06-05T05:07:24.275Z,288.00
2018-06-05T05:08:24.281Z,292.00
2018-06-05T05:09:24.280Z,304.00
2018-06-05T05:10:24.283Z,328.00
2018-06-05T05:11:24.288Z,344.00
2018-06-05T05:12:24.293Z,352.00
2018-06-05T05:13:24.294Z,352.00
2018-06-05T05:14:24.296Z,356.00
2018-06-05T05:15:24.299Z,352.00
2018-06-05T05:16:24.350Z,344.00
2018-06-05T05:17:24.324Z,340.00
2018-06-05T05:18:24.307Z,340.00
2018-06-05T05:19:24.311Z,344.00
2018-06-05T05:20:24.309Z,364.00
2018-06-05T05:21:24.314Z,372.00
2018-06-05T05:22:24.319Z,376.00
2018-06-05T05:23:24.325Z,368.00
2018-06-05T05:24:24.327Z,372.00
2018-06-05T05:25:24.343Z,380.00
2018-06-05T05:26:24.331Z,384.00
2018-06-05T05:27:24.331Z,384.00
2018-06-05T05:28:24.333Z,392.00
2018-06-05T05:29:24.338Z,404.00
2018-06-05T05:30:24.337Z,404.00
2018-06-05T05:31:24.341Z,396.00
2018-06-05T05:32:24.345Z,408.00
2018-06-05T05:33:24.349Z,440.00
2018-06-05T05:34:24.352Z,468.00
2018-06-05T05:35:24.373Z,484.00
2018-06-05T05:36:24.358Z,492.00
2018-06-05T05:37:25.219Z,500.00
2018-06-05T05:38:25.154Z,484.00
2018-06-05T05:39:24.368Z,456.00
2018-06-05T05:40:24.373Z,436.00
2018-06-05T05:41:24.374Z,428.00
2018-06-05T05:42:24.378Z,416.00
2018-06-05T05:43:24.381Z,408.00
2018-06-05T05:44:24.385Z,408.00
2018-06-05T05:45:24.385Z,424.00
2018-06-05T05:46:24.388Z,444.00
2018-06-05T05:47:24.397Z,460.00
2018-06-05T05:48:24.397Z,480.00
2018-06-05T05:49:24.406Z,476.00
2018-06-05T05:50:24.419Z,452.00
2018-06-05T05:51:24.405Z,428.00
2018-06-05T05:52:24.414Z,424.00
2018-06-05T05:53:24.412Z,440.00
2018-06-05T05:54:24.415Z,480.00
2018-06-05T05:55:24.424Z,516.00
2018-06-05T05:56:24.421Z,552.00
2018-06-05T05:57:24.427Z,580.00
2018-06-05T05:58:24.437Z,588.00
2018-06-05T05:59:24.432Z,576.00
2018-06-05T06:00:24.433Z,544.00
2018-06-05T06:01:24.438Z,496.00
2018-06-05T06:02:24.442Z,464.00
2018-06-05T06:03:24.445Z,460.00
2018-06-05T06:04:24.452Z,484.00
2018-06-05T06:05:24.452Z,508.00
2018-06-05T06:06:24.455Z,524.00
2018-06-05T06:07:24.461Z,540.00
2018-06-05T06:08:24.461Z,564.00
2018-06-05T06:09:24.465Z,596.00
2018-06-05T06:10:24.479Z,624.00
2018-06-05T06:11:24.470Z,664.00
2018-06-05T06:12:24.473Z,692.00
2018-06-05T06:13:24.484Z,704.00
2018-06-05T06:14:24.497Z,712.00
2018-06-05T06:15:24.485Z,720.00
2018-06-05T06:16:24.488Z,716.00
2018-06-05T06:17:24.493Z,708.00
2018-06-05T06:18:24.497Z,704.00
2018-06-05T06:19:24.498Z,672.00
2018-06-05T06:20:24.503Z,656.00
2018-06-05T06:21:24.511Z,676.00
2018-06-05T06:22:24.509Z,704.00
2018-06-05T06:23:24.512Z,728.00
2018-06-05T06:24:24.516Z,756.00
2018-06-05T06:25:24.517Z,780.00
2018-06-05T06:26:24.529Z,804.00
2018-06-05T06:27:24.525Z,816.00
2018-06-05T06:28:24.530Z,820.00
2018-06-05T06:29:24.533Z,816.00
2018-06-05T06:30:24.535Z,836.00
2018-06-05T06:31:24.544Z,860.00
2018-06-05T06:32:24.545Z,892.00
2018-06-05T06:33:24.547Z,900.00
2018-06-05T06:34:24.549Z,892.00
2018-06-05T06:35:24.552Z,892.00
2018-06-05T06:36:24.556Z,900.00
2018-06-05T06:37:24.578Z,908.00
2018-06-05T06:38:24.568Z,912.00
2018-06-05T06:39:24.567Z,892.00
2018-06-05T06:40:24.578Z,856.00
2018-06-05T06:41:24.574Z,820.00
2018-06-05T06:42:24.578Z,780.00
2018-06-05T06:43:24.583Z,756.00
2018-06-05T06:44:24.585Z,736.00
2018-06-05T06:45:24.590Z,716.00
2018-06-05T06:46:24.597Z,696.00
2018-06-05T06:47:24.594Z,684.00
2018-06-05T06:48:24.606Z,672.00
2018-06-05T06:49:24.613Z,692.00
2018-06-05T06:50:24.612Z,740.00
2018-06-05T06:51:24.615Z,812.00
2018-06-05T06:52:24.619Z,864.00
2018-06-05T06:53:24.619Z,900.00
2018-06-05T06:54:24.670Z,944.00
2018-06-05T06:55:24.625Z,976.00
2018-06-05T06:56:24.634Z,988.00
2018-06-05T06:57:24.650Z,1012.00
2018-06-05T06:58:24.640Z,1020.00
2018-06-05T06:59:24.642Z,1028.00
2018-06-05T07:00:24.646Z,1032.00
2018-06-05T07:01:24.649Z,1024.00
2018-06-05T07:02:24.653Z,1008.00
2018-06-05T07:03:24.657Z,992.00
2018-06-05T07:04:24.666Z,984.00
2018-06-05T07:05:24.663Z,976.00
2018-06-05T07:06:24.666Z,956.00
2018-06-05T07:07:24.676Z,944.00
2018-06-05T07:08:24.703Z,936.00
2018-06-05T07:09:24.683Z,940.00
2018-06-05T07:10:24.694Z,932.00
2018-06-05T07:11:24.687Z,924.00
2018-06-05T07:12:24.691Z,904.00
2018-06-05T07:13:24.694Z,896.00
2018-06-05T07:14:24.700Z,880.00
2018-06-05T07:15:24.703Z,868.00
2018-06-05T07:16:24.707Z,844.00
2018-06-05T07:17:24.716Z,836.00
2018-06-05T07:18:24.716Z,848.00
2018-06-05T07:19:24.717Z,872.00
2018-06-05T07:20:24.721Z,892.00
2018-06-05T07:21:24.727Z,904.00
2018-06-05T07:22:24.731Z,916.00
2018-06-05T07:23:24.732Z,936.00
2018-06-05T07:24:24.740Z,956.00
2018-06-05T07:25:24.744Z,972.00
2018-06-05T07:26:24.746Z,992.00
2018-06-05T07:27:24.751Z,1004.00
2018-06-05T07:28:24.753Z,1008.00
2018-06-05T07:29:24.761Z,1024.00
2018-06-05T07:30:24.813Z,1016.00
2018-06-05T07:31:24.767Z,1000.00
2018-06-05T07:32:24.772Z,980.00
2018-06-05T07:33:24.775Z,964.00
2018-06-05T07:34:24.785Z,964.00
2018-06-05T07:35:24.785Z,968.00
2018-06-05T07:36:24.790Z,976.00
2018-06-05T07:37:24.792Z,980.00
2018-06-05T07:38:24.798Z,984.00
2018-06-05T07:39:24.798Z,992.00
2018-06-05T07:40:24.805Z,1004.00
2018-06-05T07:41:24.809Z,1024.00
2018-06-05T07:42:24.812Z,1040.00
2018-06-05T07:43:24.816Z,1052.00
2018-06-05T07:44:24.870Z,1052.00
2018-06-05T07:45:24.823Z,1048.00
2018-06-05T07:46:24.842Z,1036.00
2018-06-05T07:47:24.837Z,1032.00
2018-06-05T07:48:24.836Z,1028.00
2018-06-05T07:49:24.844Z,1028.00
2018-06-05T07:50:24.847Z,1032.00
2018-06-05T07:51:24.849Z,1036.00
2018-06-05T07:52:24.854Z,1044.00
2018-06-05T07:53:24.870Z,1052.00
2018-06-05T07:54:24.864Z,1060.00
2018-06-05T07:55:24.909Z,1064.00
2018-06-05T07:56:24.879Z,1064.00
2018-06-05T07:57:24.875Z,1052.00
2018-06-05T07:58:24.881Z,1036.00
2018-06-05T07:59:24.884Z,1028.00
2018-06-05T08:00:24.922Z,1024.00
2018-06-05T08:01:24.893Z,1032.00
2018-06-05T08:02:24.896Z,1052.00
2018-06-05T08:03:24.901Z,1076.00
2018-06-05T08:04:24.950Z,1096.00
2018-06-05T08:05:24.910Z,1104.00
2018-06-05T08:06:24.914Z,1104.00
2018-06-05T08:07:24.916Z,1100.00
2018-06-05T08:08:24.923Z,1092.00
2018-06-05T08:09:24.929Z,1084.00
2018-06-05T08:10:24.931Z,1084.00
2018-06-05T08:11:24.935Z,1088.00
2018-06-05T08:12:24.941Z,1100.00
2018-06-05T08:13:24.945Z,1104.00
2018-06-05T08:14:24.950Z,1108.00
2018-06-05T08:15:24.954Z,1112.00
2018-06-05T08:16:24.977Z,1120.00
2018-06-05T08:17:24.965Z,1136.00
2018-06-05T08:18:24.972Z,1144.00
2018-06-05T08:19:24.971Z,1156.00
2018-06-05T08:20:24.974Z,1164.00
2018-06-05T08:21:24.980Z,1164.00
2018-06-05T08:22:24.982Z,1164.00
2018-06-05T08:23:24.988Z,1160.00
2018-06-05T08:24:25.030Z,1156.00
2018-06-05T08:25:24.997Z,1152.00
2018-06-05T08:26:25.000Z,1156.00
2018-06-05T08:27:25.010Z,1168.00
2018-06-05T08:28:25.008Z,1176.00
2018-06-05T08:29:25.012Z,1180.00
2018-06-05T08:30:25.018Z,1188.00
2018-06-05T08:31:25.022Z,1196.00
2018-06-05T08:32:25.028Z,1216.00
2018-06-05T08:33:25.031Z,1236.00
2018-06-05T08:34:25.051Z,1264.00
2018-06-05T08:35:25.044Z,1292.00
2018-06-05T08:36:25.044Z,1320.00
2018-06-05T08:37:25.053Z,1348.00
2018-06-05T08:38:25.052Z,1372.00
2018-06-05T08:39:25.113Z,1404.00
2018-06-05T08:40:25.062Z,1440.00
2018-06-05T08:41:25.069Z,1472.00
2018-06-05T08:42:25.069Z,1500.00
2018-06-05T08:43:25.072Z,1528.00
2018-06-05T08:44:25.078Z,1568.00
2018-06-05T08:45:25.098Z,1616.00
2018-06-05T08:46:25.089Z,1676.00
2018-06-05T08:47:25.092Z,1748.00
2018-06-05T08:48:25.097Z,1832.00
2018-06-05T08:49:25.139Z,1920.00
2018-06-05T08:50:25.107Z,1996.00
2018-06-05T08:51:25.114Z,2048.00
2018-06-05T08:52:25.115Z,2072.00
2018-06-05T08:53:25.121Z,2048.00
2018-06-05T08:54:25.125Z,2052.00
2018-06-05T08:55:25.132Z,2096.00
2018-06-05T08:56:25.134Z,2148.00
2018-06-05T08:57:25.139Z,2200.00
2018-06-05T08:58:25.146Z,2264.00
2018-06-05T08:59:25.148Z,2328.00
2018-06-05T09:00:25.152Z,2368.00
2018-06-05T09:01:25.158Z,2380.00
2018-06-05T09:02:25.163Z,2400.00
2018-06-05T09:03:25.182Z,2412.00
2018-06-05T09:04:25.173Z,2468.00
2018-06-05T09:05:25.232Z,2572.00
2018-06-05T09:06:25.184Z,2620.00
2018-06-05T09:07:25.186Z,2608.00
2018-06-05T09:08:25.191Z,2664.00
2018-06-05T09:09:25.197Z,2784.00
2018-06-05T09:10:25.225Z,2960.00
2018-06-05T09:11:25.205Z,3128.00
2018-06-05T09:12:25.208Z,3224.00
2018-06-05T09:13:25.220Z,3256.00
2018-06-05T09:14:25.224Z,3248.00
2018-06-05T09:15:25.226Z,3284.00
2018-06-05T09:16:25.229Z,3328.00
2018-06-05T09:17:25.241Z,3368.00
2018-06-05T09:18:25.240Z,3384.00
2018-06-05T09:19:25.259Z,3296.00
2018-06-05T09:20:25.261Z,3204.00
2018-06-05T09:21:25.277Z,3096.00
2018-06-05T09:22:25.262Z,2932.00
2018-06-05T09:23:25.265Z,2824.00
2018-06-05T09:24:25.271Z,2808.00
2018-06-05T09:25:25.276Z,2780.00
2018-06-05T09:26:25.281Z,2716.00
2018-06-05T09:27:25.287Z,2644.00
2018-06-05T09:28:25.291Z,2532.00
2018-06-05T09:29:25.299Z,2460.00
2018-06-05T09:30:25.303Z,2440.00
2018-06-05T09:31:25.307Z,2472.00
2018-06-05T09:32:25.315Z,2540.00
2018-06-05T09:33:25.339Z,2556.00
2018-06-05T09:34:25.366Z,2496.00
2018-06-05T09:35:25.329Z,2436.00
2018-06-05T09:36:25.335Z,2368.00
2018-06-05T09:37:25.344Z,2316.00
2018-06-05T09:38:25.345Z,2272.00
2018-06-05T09:39:25.361Z,2256.00
2018-06-05T09:40:25.356Z,2324.00
2018-06-05T09:41:25.364Z,2576.00
2018-06-05T09:42:25.369Z,2780.00
2018-06-05T09:43:25.374Z,2844.00
2018-06-05T09:44:25.398Z,2832.00
2018-06-05T09:45:25.385Z,3248.00
2018-06-05T09:46:25.391Z,3924.00
2018-06-05T09:47:25.395Z,4296.00
2018-06-05T09:48:25.401Z,4600.00
2018-06-05T09:49:25.407Z,4564.00
2018-06-05T09:50:25.412Z,4980.00
2018-06-05T09:51:25.419Z,5056.00
2018-06-05T09:52:25.471Z,5352.00
2018-06-05T09:53:25.430Z,5464.00
2018-06-05T09:54:25.436Z,5444.00
2018-06-05T09:55:25.439Z,5280.00
2018-06-05T09:56:25.444Z,4872.00
2018-06-05T09:57:25.457Z,4016.00
2018-06-05T09:58:25.565Z,3452.00
2018-06-05T09:59:25.463Z,3180.00
2018-06-05T10:00:25.470Z,3032.00
2018-06-05T10:01:25.474Z,2900.00
2018-06-05T10:02:25.480Z,2804.00
2018-06-05T10:03:25.502Z,2784.00
2018-06-05T10:04:25.491Z,2856.00
2018-06-05T10:05:25.498Z,2924.00
2018-06-05T10:06:25.508Z,2760.00
2018-06-05T10:07:25.519Z,2784.00
2018-06-05T10:08:25.517Z,2728.00
2018-06-05T10:09:25.523Z,2652.00
2018-06-05T10:10:25.526Z,2628.00
2018-06-05T10:11:25.530Z,2884.00
2018-06-05T10:12:25.542Z,2816.00
2018-06-05T10:13:25.543Z,2736.00
2018-06-05T10:14:25.559Z,2736.00
2018-06-05T10:15:25.554Z,2848.00
2018-06-05T10:16:25.567Z,3068.00
2018-06-05T10:17:25.566Z,3436.00
2018-06-05T10:18:25.572Z,3680.00
2018-06-05T10:19:25.578Z,3728.00
2018-06-05T10:20:25.601Z,3572.00
2018-06-05T10:21:25.608Z,3356.00
2018-06-05T10:22:25.596Z,3172.00
2018-06-05T10:23:25.625Z,2928.00
2018-06-05T10:24:25.607Z,2720.00
2018-06-05T10:25:25.612Z,2660.00
2018-06-05T10:26:25.617Z,2648.00
2018-06-05T10:27:25.642Z,2548.00
2018-06-05T10:28:25.632Z,2480.00
2018-06-05T10:29:25.646Z,2392.00
2018-06-05T10:30:25.652Z,2288.00
2018-06-05T10:31:25.670Z,2180.00
2018-06-05T10:32:25.675Z,2084.00
2018-06-05T10:33:25.659Z,2064.00
2018-06-05T10:34:25.665Z,2068.00
2018-06-05T10:35:25.695Z,2068.00
2018-06-05T10:36:25.679Z,2056.00
2018-06-05T10:37:25.685Z,2044.00
2018-06-05T10:38:25.691Z,2044.00
2018-06-05T10:39:25.695Z,2064.00
2018-06-05T10:40:25.698Z,2104.00
2018-06-05T10:41:25.705Z,2124.00
2018-06-05T10:42:25.711Z,2116.00
2018-06-05T10:43:25.717Z,2072.00
2018-06-05T10:44:25.723Z,1980.00
2018-06-05T10:45:25.731Z,1860.00
2018-06-05T10:46:25.738Z,1760.00
2018-06-05T10:47:25.740Z,1692.00
2018-06-05T10:48:25.745Z,1620.00
2018-06-05T10:49:25.756Z,1592.00
2018-06-05T10:50:25.758Z,1584.00
2018-06-05T10:51:25.760Z,1600.00
2018-06-05T10:52:25.768Z,1620.00
2018-06-05T10:53:25.775Z,1660.00
2018-06-05T10:54:25.793Z,1684.00
2018-06-05T10:55:25.785Z,1656.00
2018-06-05T10:56:25.792Z,1592.00
2018-06-05T10:57:25.796Z,1564.00
2018-06-05T10:58:25.803Z,1536.00
2018-06-05T10:59:25.810Z,1508.00
2018-06-05T11:00:25.839Z,1476.00
2018-06-05T11:01:25.820Z,1448.00
2018-06-05T11:02:25.825Z,1408.00
2018-06-05T11:03:25.832Z,1348.00
2018-06-05T11:04:25.842Z,1280.00
2018-06-05T11:05:25.843Z,1232.00
2018-06-05T11:06:25.855Z,1200.00
2018-06-05T11:07:25.857Z,1184.00
2018-06-05T11:08:25.860Z,1188.00
2018-06-05T11:09:25.867Z,1212.00
2018-06-05T11:10:25.873Z,1232.00
2018-06-05T11:11:25.875Z,1244.00
2018-06-05T11:12:25.879Z,1248.00
2018-06-05T11:13:25.884Z,1244.00
2018-06-05T11:14:25.891Z,1272.00
2018-06-05T11:15:25.898Z,1336.00
2018-06-05T11:16:25.901Z,1404.00
2018-06-05T11:17:25.907Z,1476.00
2018-06-05T11:18:25.918Z,1580.00
2018-06-05T11:19:25.919Z,1696.00
2018-06-05T11:20:25.928Z,1740.00
2018-06-05T11:21:25.927Z,1748.00
2018-06-05T11:22:25.936Z,1740.00
2018-06-05T11:23:25.939Z,1752.00
2018-06-05T11:24:25.944Z,1776.00
2018-06-05T11:25:25.955Z,1776.00
2018-06-05T11:26:26.739Z,1728.00
2018-06-05T11:27:25.965Z,1652.00
2018-06-05T11:28:25.967Z,1592.00
2018-06-05T11:29:25.974Z,1560.00
2018-06-05T11:30:25.978Z,1596.00
2018-06-05T11:31:25.983Z,1696.00
2018-06-05T11:32:25.992Z,1812.00
2018-06-05T11:33:25.994Z,1952.00
2018-06-05T11:34:26.005Z,2104.00
2018-06-05T11:35:26.007Z,2168.00
2018-06-05T11:36:26.012Z,2152.00
2018-06-05T11:37:26.016Z,2108.00
2018-06-05T11:38:26.021Z,2108.00
2018-06-05T11:39:26.027Z,2168.00
2018-06-05T11:40:26.033Z,2368.00
2018-06-05T11:41:26.040Z,2536.00
2018-06-05T11:42:26.047Z,2504.00
2018-06-05T11:43:26.049Z,2432.00
2018-06-05T11:44:26.071Z,2460.00
2018-06-05T11:45:26.063Z,2508.00
2018-06-05T11:46:26.070Z,3064.00
2018-06-05T11:47:26.071Z,3256.00
2018-06-05T11:48:26.077Z,2200.00
2018-06-05T11:49:26.101Z,2196.00
2018-06-05T11:50:26.089Z,2324.00
2018-06-05T11:51:26.093Z,3228.00
2018-06-05T11:52:26.100Z,3448.00
2018-06-05T11:53:26.106Z,2752.00
2018-06-05T11:54:26.120Z,2852.00
2018-06-05T11:55:26.115Z,2936.00
2018-06-05T11:56:26.122Z,3072.00
2018-06-05T11:57:26.127Z,3176.00
2018-06-05T11:58:26.135Z,3192.00
2018-06-05T11:59:26.138Z,3260.00
2018-06-05T12:00:26.146Z,3304.00
2018-06-05T12:01:26.153Z,3336.00
2018-06-05T12:02:26.157Z,3388.00
2018-06-05T12:03:26.162Z,3408.00
2018-06-05T12:04:26.171Z,3352.00
2018-06-05T12:05:26.175Z,3236.00
2018-06-05T12:06:26.182Z,3156.00
2018-06-05T12:07:26.187Z,3100.00
2018-06-05T12:08:26.194Z,2956.00
2018-06-05T12:09:26.199Z,2760.00
2018-06-05T12:10:26.208Z,2624.00
2018-06-05T12:11:26.312Z,2540.00
2018-06-05T12:12:26.217Z,2504.00
2018-06-05T12:13:26.223Z,2484.00
2018-06-05T12:14:26.238Z,2504.00
2018-06-05T12:15:26.236Z,2600.00
2018-06-05T12:16:26.322Z,2784.00
2018-06-05T12:17:26.246Z,2844.00
2018-06-05T12:18:26.255Z,2916.00
2018-06-05T12:19:26.259Z,3092.00
2018-06-05T12:20:26.269Z,2960.00
2018-06-05T12:21:26.271Z,2784.00
2018-06-05T12:22:26.278Z,2704.00
2018-06-05T12:23:26.283Z,2564.00
2018-06-05T12:24:26.303Z,2532.00
2018-06-05T12:25:26.310Z,2504.00
2018-06-05T12:26:26.305Z,2524.00
2018-06-05T12:27:27.416Z,2552.00
2018-06-05T12:28:26.313Z,2616.00
2018-06-05T12:29:26.319Z,2712.00
2018-06-05T12:30:26.325Z,2880.00
2018-06-05T12:31:26.339Z,3016.00